sensor_id;sensor_type;location;lat;lon;timestamp;temperature;humidity
7163;DHT22;3623;47.098;15.446;2022-12-05T00:00:14;2.80;99.90
7163;DHT22;3623;47.098;15.446;2022-12-05T00:02:42;2.60;99.90
7163;DHT22;3623;47.098;15.446;2022-12-05T00:05:10;2.60;99.90
7163;DHT22;3623;47.098;15.446;2022-12-05T00:07:39;2.60;99.90
7163;DHT22;3623;47.098;15.446;2022-12-05T00:10:07;2.60;99.90
7163;DHT22;3623;47.098;15.446;2022-12-05T00:12:34;2.60;99.90
7163;DHT22;3623;47.098;15.446;2022-12-05T00:15:01;2.60;99.90
7163;DHT22;3623;47.098;15.446;2022-12-05T00:17:29;2.70;99.90
7163;DHT22;3623;47.098;15.446;2022-12-05T00:19:57;2.70;99.90
7163;DHT22;3623;47.098;15.446;2022-12-05T00:22:24;2.50;99.90
7163;DHT22;3623;47.098;15.446;2022-12-05T00:24:53;2.50;99.90
7163;DHT22;3623;47.098;15.446;2022-12-05T00:27:20;2.50;99.90
7163;DHT22;3623;47.098;15.446;2022-12-05T00:29:47;2.50;99.90
7163;DHT22;3623;47.098;15.446;2022-12-05T00:32:14;2.50;99.90
7163;DHT22;3623;47.098;15.446;2022-12-05T00:34:41;2.50;99.90
7163;DHT22;3623;47.098;15.446;2022-12-05T00:37:08;2.70;99.90
7163;DHT22;3623;47.098;15.446;2022-12-05T00:39:35;2.70;99.90
7163;DHT22;3623;47.098;15.446;2022-12-05T00:42:05;2.50;99.90
7163;DHT22;3623;47.098;15.446;2022-12-05T00:44:33;2.50;99.90
7163;DHT22;3623;47.098;15.446;2022-12-05T00:47:00;2.60;99.90
7163;DHT22;3623;47.098;15.446;2022-12-05T00:49:27;2.60;99.90
7163;DHT22;3623;47.098;15.446;2022-12-05T00:51:54;2.70;99.90
7163;DHT22;3623;47.098;15.446;2022-12-05T00:54:21;2.60;99.90
7163;DHT22;3623;47.098;15.446;2022-12-05T00:56:48;2.60;99.90
7163;DHT22;3623;47.098;15.446;2022-12-05T00:59:19;2.80;99.90
7163;DHT22;3623;47.098;15.446;2022-12-05T01:01:47;2.60;99.90
7163;DHT22;3623;47.098;15.446;2022-12-05T01:04:16;2.60;99.90
7163;DHT22;3623;47.098;15.446;2022-12-05T01:06:44;2.80;99.90
7163;DHT22;3623;47.098;15.446;2022-12-05T01:09:13;2.60;99.90
7163;DHT22;3623;47.098;15.446;2022-12-05T01:11:41;2.70;99.90
7163;DHT22;3623;47.098;15.446;2022-12-05T01:14:08;2.80;99.90
7163;DHT22;3623;47.098;15.446;2022-12-05T01:16:39;2.70;99.90
7163;DHT22;3623;47.098;15.446;2022-12-05T01:19:09;2.80;99.90
7163;DHT22;3623;47.098;15.446;2022-12-05T01:21:37;2.60;99.90
7163;DHT22;3623;47.098;15.446;2022-12-05T01:24:04;2.60;99.90
7163;DHT22;3623;47.098;15.446;2022-12-05T01:26:32;2.60;99.90
7163;DHT22;3623;47.098;15.446;2022-12-05T01:28:59;2.60;99.90
7163;DHT22;3623;47.098;15.446;2022-12-05T01:31:28;2.60;99.90
7163;DHT22;3623;47.098;15.446;2022-12-05T01:33:58;2.60;99.90
7163;DHT22;3623;47.098;15.446;2022-12-05T01:36:26;2.70;99.90
7163;DHT22;3623;47.098;15.446;2022-12-05T01:38:53;2.50;99.90
7163;DHT22;3623;47.098;15.446;2022-12-05T01:41:22;2.60;99.90
7163;DHT22;3623;47.098;15.446;2022-12-05T01:43:59;2.80;99.90
7163;DHT22;3623;47.098;15.446;2022-12-05T01:46:28;2.60;99.90
7163;DHT22;3623;47.098;15.446;2022-12-05T01:49:02;2.60;99.90
7163;DHT22;3623;47.098;15.446;2022-12-05T01:51:30;2.60;99.90
7163;DHT22;3623;47.098;15.446;2022-12-05T01:53:58;2.90;99.90
7163;DHT22;3623;47.098;15.446;2022-12-05T01:56:26;2.80;99.90
7163;DHT22;3623;47.098;15.446;2022-12-05T01:58:54;2.60;99.90
7163;DHT22;3623;47.098;15.446;2022-12-05T02:01:24;2.90;99.90
7163;DHT22;3623;47.098;15.446;2022-12-05T02:03:53;2.60;99.90
7163;DHT22;3623;47.098;15.446;2022-12-05T02:06:24;2.60;99.90
7163;DHT22;3623;47.098;15.446;2022-12-05T02:08:53;2.60;99.90
7163;DHT22;3623;47.098;15.446;2022-12-05T02:11:20;2.70;99.90
7163;DHT22;3623;47.098;15.446;2022-12-05T02:14:04;2.60;99.90
7163;DHT22;3623;47.098;15.446;2022-12-05T02:16:46;2.60;99.90
7163;DHT22;3623;47.098;15.446;2022-12-05T02:19:36;2.60;99.90
7163;DHT22;3623;47.098;15.446;2022-12-05T02:22:27;2.60;99.90
7163;DHT22;3623;47.098;15.446;2022-12-05T02:25:21;2.70;99.90
7163;DHT22;3623;47.098;15.446;2022-12-05T02:28:20;2.60;99.90
7163;DHT22;3623;47.098;15.446;2022-12-05T02:30:55;2.60;99.90
7163;DHT22;3623;47.098;15.446;2022-12-05T02:33:28;2.80;99.90
7163;DHT22;3623;47.098;15.446;2022-12-05T02:36:03;2.60;99.90
7163;DHT22;3623;47.098;15.446;2022-12-05T02:38:38;2.60;99.90
7163;DHT22;3623;47.098;15.446;2022-12-05T02:41:13;2.60;99.90
7163;DHT22;3623;47.098;15.446;2022-12-05T02:43:45;2.90;99.90
7163;DHT22;3623;47.098;15.446;2022-12-05T02:46:17;2.60;99.90
7163;DHT22;3623;47.098;15.446;2022-12-05T02:48:45;2.70;99.90
7163;DHT22;3623;47.098;15.446;2022-12-05T02:51:16;2.70;99.90
7163;DHT22;3623;47.098;15.446;2022-12-05T02:53:46;2.70;99.90
7163;DHT22;3623;47.098;15.446;2022-12-05T02:56:14;2.70;99.90
7163;DHT22;3623;47.098;15.446;2022-12-05T02:58:46;2.60;99.90
7163;DHT22;3623;47.098;15.446;2022-12-05T03:01:17;2.60;99.90
7163;DHT22;3623;47.098;15.446;2022-12-05T03:03:45;2.60;99.90
7163;DHT22;3623;47.098;15.446;2022-12-05T03:06:14;2.90;99.90
7163;DHT22;3623;47.098;15.446;2022-12-05T03:08:45;2.80;99.90
7163;DHT22;3623;47.098;15.446;2022-12-05T03:11:14;2.70;99.90
7163;DHT22;3623;47.098;15.446;2022-12-05T03:13:44;2.60;99.90
7163;DHT22;3623;47.098;15.446;2022-12-05T03:16:19;2.90;99.90
7163;DHT22;3623;47.098;15.446;2022-12-05T03:18:53;2.60;99.90
7163;DHT22;3623;47.098;15.446;2022-12-05T03:21:26;2.80;99.90
7163;DHT22;3623;47.098;15.446;2022-12-05T03:24:00;2.90;99.90
7163;DHT22;3623;47.098;15.446;2022-12-05T03:26:36;2.80;99.90
7163;DHT22;3623;47.098;15.446;2022-12-05T03:29:19;2.70;99.90
7163;DHT22;3623;47.098;15.446;2022-12-05T03:31:54;2.70;99.90
7163;DHT22;3623;47.098;15.446;2022-12-05T03:34:32;2.90;99.90
7163;DHT22;3623;47.098;15.446;2022-12-05T03:37:08;2.60;99.90
7163;DHT22;3623;47.098;15.446;2022-12-05T03:39:38;2.80;99.90
7163;DHT22;3623;47.098;15.446;2022-12-05T03:42:12;2.70;99.90
7163;DHT22;3623;47.098;15.446;2022-12-05T03:44:44;2.70;99.90
7163;DHT22;3623;47.098;15.446;2022-12-05T03:47:19;2.90;99.90
7163;DHT22;3623;47.098;15.446;2022-12-05T03:49:50;2.70;99.90
7163;DHT22;3623;47.098;15.446;2022-12-05T03:52:23;2.90;99.90
7163;DHT22;3623;47.098;15.446;2022-12-05T03:54:54;2.70;99.90
7163;DHT22;3623;47.098;15.446;2022-12-05T03:57:24;2.70;99.90
7163;DHT22;3623;47.098;15.446;2022-12-05T03:59:56;2.70;99.90
7163;DHT22;3623;47.098;15.446;2022-12-05T04:02:30;2.70;99.90
7163;DHT22;3623;47.098;15.446;2022-12-05T04:05:02;2.70;99.90
7163;DHT22;3623;47.098;15.446;2022-12-05T04:07:32;2.70;99.90
7163;DHT22;3623;47.098;15.446;2022-12-05T04:10:04;2.90;99.90
7163;DHT22;3623;47.098;15.446;2022-12-05T04:12:34;2.70;99.90
7163;DHT22;3623;47.098;15.446;2022-12-05T04:15:06;2.90;99.90
7163;DHT22;3623;47.098;15.446;2022-12-05T04:17:39;2.60;99.90
7163;DHT22;3623;47.098;15.446;2022-12-05T04:20:11;2.70;99.90
7163;DHT22;3623;47.098;15.446;2022-12-05T04:22:57;2.70;99.90
7163;DHT22;3623;47.098;15.446;2022-12-05T04:25:29;2.70;99.90
7163;DHT22;3623;47.098;15.446;2022-12-05T04:28:14;2.70;99.90
7163;DHT22;3623;47.098;15.446;2022-12-05T04:30:47;2.60;99.90
7163;DHT22;3623;47.098;15.446;2022-12-05T04:33:20;2.90;99.90
7163;DHT22;3623;47.098;15.446;2022-12-05T04:35:52;2.70;99.90
7163;DHT22;3623;47.098;15.446;2022-12-05T04:38:23;2.70;99.90
7163;DHT22;3623;47.098;15.446;2022-12-05T04:40:54;2.90;99.90
7163;DHT22;3623;47.098;15.446;2022-12-05T04:43:24;2.70;99.90
7163;DHT22;3623;47.098;15.446;2022-12-05T04:45:53;3.00;99.90
7163;DHT22;3623;47.098;15.446;2022-12-05T04:48:24;2.90;99.90
7163;DHT22;3623;47.098;15.446;2022-12-05T04:50:54;2.70;99.90
7163;DHT22;3623;47.098;15.446;2022-12-05T04:53:23;2.70;99.90
7163;DHT22;3623;47.098;15.446;2022-12-05T04:55:54;2.70;99.90
7163;DHT22;3623;47.098;15.446;2022-12-05T04:58:23;2.70;99.90
7163;DHT22;3623;47.098;15.446;2022-12-05T05:00:56;2.70;99.90
7163;DHT22;3623;47.098;15.446;2022-12-05T05:03:27;2.90;99.90
7163;DHT22;3623;47.098;15.446;2022-12-05T05:05:56;2.70;99.90
7163;DHT22;3623;47.098;15.446;2022-12-05T05:08:25;2.90;99.90
7163;DHT22;3623;47.098;15.446;2022-12-05T05:11:08;2.70;99.90
7163;DHT22;3623;47.098;15.446;2022-12-05T05:13:36;2.70;99.90
7163;DHT22;3623;47.098;15.446;2022-12-05T05:16:04;2.70;99.90
7163;DHT22;3623;47.098;15.446;2022-12-05T05:18:33;2.60;99.90
7163;DHT22;3623;47.098;15.446;2022-12-05T05:21:00;2.60;99.90
7163;DHT22;3623;47.098;15.446;2022-12-05T05:23:27;2.60;99.90
7163;DHT22;3623;47.098;15.446;2022-12-05T05:25:55;2.70;99.90
7163;DHT22;3623;47.098;15.446;2022-12-05T05:28:22;2.60;99.90
7163;DHT22;3623;47.098;15.446;2022-12-05T05:30:49;2.60;99.90
7163;DHT22;3623;47.098;15.446;2022-12-05T05:33:16;2.60;99.90
7163;DHT22;3623;47.098;15.446;2022-12-05T05:35:44;2.70;99.90
7163;DHT22;3623;47.098;15.446;2022-12-05T05:38:11;2.70;99.90
7163;DHT22;3623;47.098;15.446;2022-12-05T05:40:38;2.70;99.90
7163;DHT22;3623;47.098;15.446;2022-12-05T05:43:06;2.60;99.90
7163;DHT22;3623;47.098;15.446;2022-12-05T05:45:33;2.60;99.90
7163;DHT22;3623;47.098;15.446;2022-12-05T05:48:00;2.80;99.90
7163;DHT22;3623;47.098;15.446;2022-12-05T05:50:27;2.80;99.90
7163;DHT22;3623;47.098;15.446;2022-12-05T05:52:55;2.80;99.90
7163;DHT22;3623;47.098;15.446;2022-12-05T05:55:22;2.60;99.90
7163;DHT22;3623;47.098;15.446;2022-12-05T05:57:49;2.70;99.90
7163;DHT22;3623;47.098;15.446;2022-12-05T06:00:18;2.70;99.90
7163;DHT22;3623;47.098;15.446;2022-12-05T06:02:45;2.70;99.90
7163;DHT22;3623;47.098;15.446;2022-12-05T06:05:12;2.70;99.90
7163;DHT22;3623;47.098;15.446;2022-12-05T06:07:39;2.70;99.90
7163;DHT22;3623;47.098;15.446;2022-12-05T06:10:08;2.60;99.90
7163;DHT22;3623;47.098;15.446;2022-12-05T06:12:36;2.70;99.90
7163;DHT22;3623;47.098;15.446;2022-12-05T06:15:03;2.70;99.90
7163;DHT22;3623;47.098;15.446;2022-12-05T06:17:30;2.70;99.90
7163;DHT22;3623;47.098;15.446;2022-12-05T06:19:57;2.70;99.90
7163;DHT22;3623;47.098;15.446;2022-12-05T06:22:24;2.70;99.90
7163;DHT22;3623;47.098;15.446;2022-12-05T06:24:51;2.60;99.90
7163;DHT22;3623;47.098;15.446;2022-12-05T06:27:20;2.60;99.90
7163;DHT22;3623;47.098;15.446;2022-12-05T06:29:47;2.60;99.90
7163;DHT22;3623;47.098;15.446;2022-12-05T06:32:14;2.70;99.90
7163;DHT22;3623;47.098;15.446;2022-12-05T06:34:41;2.90;99.90
7163;DHT22;3623;47.098;15.446;2022-12-05T06:37:08;2.70;99.90
7163;DHT22;3623;47.098;15.446;2022-12-05T06:39:35;2.90;99.90
7163;DHT22;3623;47.098;15.446;2022-12-05T06:42:03;2.70;99.90
7163;DHT22;3623;47.098;15.446;2022-12-05T06:44:32;2.70;99.90
7163;DHT22;3623;47.098;15.446;2022-12-05T06:46:59;2.70;99.90
7163;DHT22;3623;47.098;15.446;2022-12-05T06:49:26;2.70;99.90
7163;DHT22;3623;47.098;15.446;2022-12-05T06:51:57;2.70;99.90
7163;DHT22;3623;47.098;15.446;2022-12-05T06:54:24;2.90;99.90
7163;DHT22;3623;47.098;15.446;2022-12-05T06:56:51;2.80;99.90
7163;DHT22;3623;47.098;15.446;2022-12-05T06:59:18;2.70;99.90
7163;DHT22;3623;47.098;15.446;2022-12-05T07:01:46;3.00;99.90
7163;DHT22;3623;47.098;15.446;2022-12-05T07:04:14;2.70;99.90
7163;DHT22;3623;47.098;15.446;2022-12-05T07:06:43;2.70;99.90
7163;DHT22;3623;47.098;15.446;2022-12-05T07:09:11;2.70;99.90
7163;DHT22;3623;47.098;15.446;2022-12-05T07:11:38;3.00;99.90
7163;DHT22;3623;47.098;15.446;2022-12-05T07:14:05;2.80;99.90
7163;DHT22;3623;47.098;15.446;2022-12-05T07:16:34;2.80;99.90
7163;DHT22;3623;47.098;15.446;2022-12-05T07:19:03;2.90;99.90
7163;DHT22;3623;47.098;15.446;2022-12-05T07:21:30;2.90;99.90
7163;DHT22;3623;47.098;15.446;2022-12-05T07:23:57;2.90;99.90
7163;DHT22;3623;47.098;15.446;2022-12-05T07:26:24;3.00;99.90
7163;DHT22;3623;47.098;15.446;2022-12-05T07:28:54;3.00;99.90
7163;DHT22;3623;47.098;15.446;2022-12-05T07:31:22;3.20;99.90
7163;DHT22;3623;47.098;15.446;2022-12-05T07:33:50;3.00;99.90
7163;DHT22;3623;47.098;15.446;2022-12-05T07:36:20;3.00;99.90
7163;DHT22;3623;47.098;15.446;2022-12-05T07:38:47;3.20;99.90
7163;DHT22;3623;47.098;15.446;2022-12-05T07:41:19;3.10;99.90
7163;DHT22;3623;47.098;15.446;2022-12-05T07:43:46;3.10;99.90
7163;DHT22;3623;47.098;15.446;2022-12-05T07:46:13;3.40;99.90
7163;DHT22;3623;47.098;15.446;2022-12-05T07:48:40;3.30;99.90
7163;DHT22;3623;47.098;15.446;2022-12-05T07:51:08;3.10;99.90
7163;DHT22;3623;47.098;15.446;2022-12-05T07:53:37;3.20;99.90
7163;DHT22;3623;47.098;15.446;2022-12-05T07:56:07;3.40;99.90
7163;DHT22;3623;47.098;15.446;2022-12-05T07:58:35;3.30;99.90
7163;DHT22;3623;47.098;15.446;2022-12-05T08:01:07;3.40;99.90
7163;DHT22;3623;47.098;15.446;2022-12-05T08:03:34;3.40;99.90
7163;DHT22;3623;47.098;15.446;2022-12-05T08:06:02;3.50;99.90
7163;DHT22;3623;47.098;15.446;2022-12-05T08:08:29;3.50;99.90
7163;DHT22;3623;47.098;15.446;2022-12-05T08:11:04;3.70;99.90
7163;DHT22;3623;47.098;15.446;2022-12-05T08:13:31;3.60;99.90
7163;DHT22;3623;47.098;15.446;2022-12-05T08:16:02;3.70;99.90
7163;DHT22;3623;47.098;15.446;2022-12-05T08:18:29;3.70;99.90
7163;DHT22;3623;47.098;15.446;2022-12-05T08:21:00;3.80;99.90
7163;DHT22;3623;47.098;15.446;2022-12-05T08:23:28;3.80;99.90
7163;DHT22;3623;47.098;15.446;2022-12-05T08:25:59;4.00;99.90
7163;DHT22;3623;47.098;15.446;2022-12-05T08:28:28;4.00;99.90
7163;DHT22;3623;47.098;15.446;2022-12-05T08:31:01;4.00;99.90
7163;DHT22;3623;47.098;15.446;2022-12-05T08:33:28;4.10;99.90
7163;DHT22;3623;47.098;15.446;2022-12-05T08:35:55;4.30;99.90
7163;DHT22;3623;47.098;15.446;2022-12-05T08:38:22;4.20;99.90
7163;DHT22;3623;47.098;15.446;2022-12-05T08:40:49;4.10;99.90
7163;DHT22;3623;47.098;15.446;2022-12-05T08:43:16;4.10;99.90
7163;DHT22;3623;47.098;15.446;2022-12-05T08:45:49;4.10;99.90
7163;DHT22;3623;47.098;15.446;2022-12-05T08:48:16;4.10;99.90
7163;DHT22;3623;47.098;15.446;2022-12-05T08:50:43;3.90;99.90
7163;DHT22;3623;47.098;15.446;2022-12-05T08:53:11;3.80;99.90
7163;DHT22;3623;47.098;15.446;2022-12-05T08:55:38;3.80;99.90
7163;DHT22;3623;47.098;15.446;2022-12-05T08:58:05;3.80;99.90
7163;DHT22;3623;47.098;15.446;2022-12-05T09:00:32;4.00;99.90
7163;DHT22;3623;47.098;15.446;2022-12-05T09:03:00;4.00;99.90
7163;DHT22;3623;47.098;15.446;2022-12-05T09:05:27;4.30;99.90
7163;DHT22;3623;47.098;15.446;2022-12-05T09:07:54;4.10;99.90
7163;DHT22;3623;47.098;15.446;2022-12-05T09:10:24;4.10;99.90
7163;DHT22;3623;47.098;15.446;2022-12-05T09:12:51;4.10;99.90
7163;DHT22;3623;47.098;15.446;2022-12-05T09:15:19;4.10;99.90
7163;DHT22;3623;47.098;15.446;2022-12-05T09:17:46;4.00;99.90
7163;DHT22;3623;47.098;15.446;2022-12-05T09:20:14;4.20;99.90
7163;DHT22;3623;47.098;15.446;2022-12-05T09:22:41;4.00;99.90
7163;DHT22;3623;47.098;15.446;2022-12-05T09:25:08;4.00;99.90
7163;DHT22;3623;47.098;15.446;2022-12-05T09:27:35;4.00;99.90
7163;DHT22;3623;47.098;15.446;2022-12-05T09:30:03;4.10;99.90
7163;DHT22;3623;47.098;15.446;2022-12-05T09:32:31;4.10;99.90
7163;DHT22;3623;47.098;15.446;2022-12-05T09:34:58;4.30;99.90
7163;DHT22;3623;47.098;15.446;2022-12-05T09:37:26;4.20;99.90
7163;DHT22;3623;47.098;15.446;2022-12-05T09:39:53;4.20;99.90
7163;DHT22;3623;47.098;15.446;2022-12-05T09:42:34;4.40;99.90
7163;DHT22;3623;47.098;15.446;2022-12-05T09:45:21;4.40;99.90
7163;DHT22;3623;47.098;15.446;2022-12-05T09:47:53;4.40;99.90
7163;DHT22;3623;47.098;15.446;2022-12-05T09:50:24;4.30;99.90
7163;DHT22;3623;47.098;15.446;2022-12-05T09:53:04;4.50;99.90
7163;DHT22;3623;47.098;15.446;2022-12-05T09:55:41;4.20;99.90
7163;DHT22;3623;47.098;15.446;2022-12-05T09:58:20;4.10;99.90
7163;DHT22;3623;47.098;15.446;2022-12-05T10:00:48;4.10;99.90
7163;DHT22;3623;47.098;15.446;2022-12-05T10:03:23;4.00;99.90
7163;DHT22;3623;47.098;15.446;2022-12-05T10:06:01;4.30;99.90
7163;DHT22;3623;47.098;15.446;2022-12-05T10:08:39;4.00;99.90
7163;DHT22;3623;47.098;15.446;2022-12-05T10:11:13;4.00;99.90
7163;DHT22;3623;47.098;15.446;2022-12-05T10:13:50;4.00;99.90
7163;DHT22;3623;47.098;15.446;2022-12-05T10:16:25;4.00;99.90
7163;DHT22;3623;47.098;15.446;2022-12-05T10:18:58;3.90;99.90
7163;DHT22;3623;47.098;15.446;2022-12-05T10:21:30;4.20;99.90
7163;DHT22;3623;47.098;15.446;2022-12-05T10:24:01;4.00;99.90
7163;DHT22;3623;47.098;15.446;2022-12-05T10:26:32;4.30;99.90
7163;DHT22;3623;47.098;15.446;2022-12-05T10:29:06;4.00;99.90
7163;DHT22;3623;47.098;15.446;2022-12-05T10:31:38;4.00;99.90
7163;DHT22;3623;47.098;15.446;2022-12-05T10:34:14;4.00;99.90
7163;DHT22;3623;47.098;15.446;2022-12-05T10:36:46;4.00;99.90
7163;DHT22;3623;47.098;15.446;2022-12-05T10:39:18;4.20;99.90
7163;DHT22;3623;47.098;15.446;2022-12-05T10:41:45;4.30;99.90
7163;DHT22;3623;47.098;15.446;2022-12-05T10:44:12;4.10;99.90
7163;DHT22;3623;47.098;15.446;2022-12-05T10:46:40;4.20;99.90
7163;DHT22;3623;47.098;15.446;2022-12-05T10:49:09;4.30;99.90
7163;DHT22;3623;47.098;15.446;2022-12-05T10:51:37;4.50;99.90
7163;DHT22;3623;47.098;15.446;2022-12-05T10:54:14;4.80;99.90
7163;DHT22;3623;47.098;15.446;2022-12-05T10:56:46;4.60;99.90
7163;DHT22;3623;47.098;15.446;2022-12-05T10:59:15;4.60;99.90
7163;DHT22;3623;47.098;15.446;2022-12-05T11:01:46;4.60;99.90
7163;DHT22;3623;47.098;15.446;2022-12-05T11:04:23;4.40;99.90
7163;DHT22;3623;47.098;15.446;2022-12-05T11:06:53;4.40;99.90
7163;DHT22;3623;47.098;15.446;2022-12-05T11:09:23;4.30;99.90
7163;DHT22;3623;47.098;15.446;2022-12-05T11:12:05;4.40;99.90
7163;DHT22;3623;47.098;15.446;2022-12-05T11:14:38;4.50;99.90
7163;DHT22;3623;47.098;15.446;2022-12-05T11:17:05;4.40;99.90
7163;DHT22;3623;47.098;15.446;2022-12-05T11:19:47;4.40;99.90
7163;DHT22;3623;47.098;15.446;2022-12-05T11:22:16;4.50;99.90
7163;DHT22;3623;47.098;15.446;2022-12-05T11:24:43;4.60;99.90
7163;DHT22;3623;47.098;15.446;2022-12-05T11:27:25;4.50;99.90
7163;DHT22;3623;47.098;15.446;2022-12-05T11:29:56;4.40;99.90
7163;DHT22;3623;47.098;15.446;2022-12-05T11:32:25;4.50;99.90
7163;DHT22;3623;47.098;15.446;2022-12-05T11:34:57;4.80;99.90
7163;DHT22;3623;47.098;15.446;2022-12-05T11:37:31;4.50;99.90
7163;DHT22;3623;47.098;15.446;2022-12-05T11:40:04;4.40;99.90
7163;DHT22;3623;47.098;15.446;2022-12-05T11:42:58;4.40;99.90
7163;DHT22;3623;47.098;15.446;2022-12-05T11:45:40;4.30;99.90
7163;DHT22;3623;47.098;15.446;2022-12-05T11:48:25;4.20;99.90
7163;DHT22;3623;47.098;15.446;2022-12-05T11:51:09;4.20;99.90
7163;DHT22;3623;47.098;15.446;2022-12-05T11:54:01;4.20;99.90
7163;DHT22;3623;47.098;15.446;2022-12-05T11:56:36;4.30;99.90
7163;DHT22;3623;47.098;15.446;2022-12-05T11:59:29;4.40;99.90
7163;DHT22;3623;47.098;15.446;2022-12-05T12:02:09;4.50;99.90
7163;DHT22;3623;47.098;15.446;2022-12-05T12:04:49;4.90;99.90
7163;DHT22;3623;47.098;15.446;2022-12-05T12:07:40;4.90;99.90
7163;DHT22;3623;47.098;15.446;2022-12-05T12:10:17;4.90;99.90
7163;DHT22;3623;47.098;15.446;2022-12-05T12:13:00;5.00;99.90
7163;DHT22;3623;47.098;15.446;2022-12-05T12:15:48;5.10;99.90
7163;DHT22;3623;47.098;15.446;2022-12-05T12:18:33;5.00;99.90
7163;DHT22;3623;47.098;15.446;2022-12-05T12:21:12;5.00;99.90
7163;DHT22;3623;47.098;15.446;2022-12-05T12:23:49;5.00;99.90
7163;DHT22;3623;47.098;15.446;2022-12-05T12:26:29;4.90;99.90
7163;DHT22;3623;47.098;15.446;2022-12-05T12:29:06;4.80;99.90
7163;DHT22;3623;47.098;15.446;2022-12-05T12:31:46;4.80;99.90
7163;DHT22;3623;47.098;15.446;2022-12-05T12:34:34;4.80;99.90
7163;DHT22;3623;47.098;15.446;2022-12-05T12:37:10;4.80;99.90
7163;DHT22;3623;47.098;15.446;2022-12-05T12:39:48;4.70;99.90
7163;DHT22;3623;47.098;15.446;2022-12-05T12:42:20;4.80;99.90
7163;DHT22;3623;47.098;15.446;2022-12-05T12:47:49;4.80;99.90
7163;DHT22;3623;47.098;15.446;2022-12-05T12:50:20;4.50;99.90
7163;DHT22;3623;47.098;15.446;2022-12-05T12:53:01;4.50;99.90
7163;DHT22;3623;47.098;15.446;2022-12-05T12:55:38;4.40;99.90
7163;DHT22;3623;47.098;15.446;2022-12-05T12:58:17;4.40;99.90
7163;DHT22;3623;47.098;15.446;2022-12-05T13:00:54;4.40;99.90
7163;DHT22;3623;47.098;15.446;2022-12-05T13:03:26;4.50;99.90
7163;DHT22;3623;47.098;15.446;2022-12-05T13:05:58;4.50;99.90
7163;DHT22;3623;47.098;15.446;2022-12-05T13:08:31;4.40;99.90
7163;DHT22;3623;47.098;15.446;2022-12-05T13:11:03;4.40;99.90
7163;DHT22;3623;47.098;15.446;2022-12-05T13:13:34;4.50;99.90
7163;DHT22;3623;47.098;15.446;2022-12-05T13:16:05;4.60;99.90
7163;DHT22;3623;47.098;15.446;2022-12-05T13:18:34;4.50;99.90
7163;DHT22;3623;47.098;15.446;2022-12-05T13:21:05;4.80;99.90
7163;DHT22;3623;47.098;15.446;2022-12-05T13:23:44;4.50;99.90
7163;DHT22;3623;47.098;15.446;2022-12-05T13:26:12;4.40;99.90
7163;DHT22;3623;47.098;15.446;2022-12-05T13:28:48;4.30;99.90
7163;DHT22;3623;47.098;15.446;2022-12-05T13:31:16;4.30;99.90
7163;DHT22;3623;47.098;15.446;2022-12-05T13:33:46;4.40;99.90
7163;DHT22;3623;47.098;15.446;2022-12-05T13:36:16;4.40;99.90
7163;DHT22;3623;47.098;15.446;2022-12-05T13:39:02;4.40;99.90
7163;DHT22;3623;47.098;15.446;2022-12-05T13:41:50;4.30;99.90
7163;DHT22;3623;47.098;15.446;2022-12-05T13:44:39;4.40;99.90
7163;DHT22;3623;47.098;15.446;2022-12-05T13:47:27;4.30;99.90
7163;DHT22;3623;47.098;15.446;2022-12-05T13:50:02;4.30;99.90
7163;DHT22;3623;47.098;15.446;2022-12-05T13:52:38;4.20;99.90
7163;DHT22;3623;47.098;15.446;2022-12-05T13:55:17;4.30;99.90
7163;DHT22;3623;47.098;15.446;2022-12-05T13:57:49;4.30;99.90
7163;DHT22;3623;47.098;15.446;2022-12-05T14:00:34;4.20;99.90
7163;DHT22;3623;47.098;15.446;2022-12-05T14:03:05;4.40;99.90
7163;DHT22;3623;47.098;15.446;2022-12-05T14:05:53;4.20;99.90
7163;DHT22;3623;47.098;15.446;2022-12-05T14:11:17;4.20;99.90
7163;DHT22;3623;47.098;15.446;2022-12-05T14:13:44;4.40;99.90
7163;DHT22;3623;47.098;15.446;2022-12-05T14:22:01;4.30;99.90
7163;DHT22;3623;47.098;15.446;2022-12-05T14:24:32;4.10;99.90
7163;DHT22;3623;47.098;15.446;2022-12-05T14:27:06;4.10;99.90
7163;DHT22;3623;47.098;15.446;2022-12-05T14:29:57;4.10;99.90
7163;DHT22;3623;47.098;15.446;2022-12-05T14:32:28;4.10;99.90
7163;DHT22;3623;47.098;15.446;2022-12-05T14:35:03;4.10;99.90
7163;DHT22;3623;47.098;15.446;2022-12-05T14:37:34;4.20;99.90
7163;DHT22;3623;47.098;15.446;2022-12-05T14:40:14;4.30;99.90
7163;DHT22;3623;47.098;15.446;2022-12-05T14:42:50;4.10;99.90
7163;DHT22;3623;47.098;15.446;2022-12-05T14:45:40;4.10;99.90
7163;DHT22;3623;47.098;15.446;2022-12-05T14:48:27;4.10;99.90
7163;DHT22;3623;47.098;15.446;2022-12-05T14:50:55;4.10;99.90
7163;DHT22;3623;47.098;15.446;2022-12-05T14:53:30;4.20;99.90
7163;DHT22;3623;47.098;15.446;2022-12-05T14:56:04;4.20;99.90
7163;DHT22;3623;47.098;15.446;2022-12-05T14:58:36;4.10;99.90
7163;DHT22;3623;47.098;15.446;2022-12-05T15:01:07;4.00;99.90
7163;DHT22;3623;47.098;15.446;2022-12-05T15:03:55;4.00;99.90
7163;DHT22;3623;47.098;15.446;2022-12-05T15:06:24;4.00;99.90
7163;DHT22;3623;47.098;15.446;2022-12-05T15:08:56;4.20;99.90
7163;DHT22;3623;47.098;15.446;2022-12-05T15:11:24;4.00;99.90
7163;DHT22;3623;47.098;15.446;2022-12-05T15:13:57;4.00;99.90
7163;DHT22;3623;47.098;15.446;2022-12-05T15:16:27;4.00;99.90
7163;DHT22;3623;47.098;15.446;2022-12-05T15:18:58;4.20;99.90
7163;DHT22;3623;47.098;15.446;2022-12-05T15:21:31;4.00;99.90
7163;DHT22;3623;47.098;15.446;2022-12-05T15:24:01;4.00;99.90
7163;DHT22;3623;47.098;15.446;2022-12-05T15:26:34;4.10;99.90
7163;DHT22;3623;47.098;15.446;2022-12-05T15:29:05;4.00;99.90
7163;DHT22;3623;47.098;15.446;2022-12-05T15:31:35;4.00;99.90
7163;DHT22;3623;47.098;15.446;2022-12-05T15:34:06;4.10;99.90
7163;DHT22;3623;47.098;15.446;2022-12-05T15:36:42;4.10;99.90
7163;DHT22;3623;47.098;15.446;2022-12-05T15:39:18;4.20;99.90
7163;DHT22;3623;47.098;15.446;2022-12-05T15:41:49;4.00;99.90
7163;DHT22;3623;47.098;15.446;2022-12-05T15:44:16;4.00;99.90
7163;DHT22;3623;47.098;15.446;2022-12-05T15:46:44;4.00;99.90
7163;DHT22;3623;47.098;15.446;2022-12-05T15:49:21;4.00;99.90
7163;DHT22;3623;47.098;15.446;2022-12-05T15:51:51;4.00;99.90
7163;DHT22;3623;47.098;15.446;2022-12-05T15:54:24;4.30;99.90
7163;DHT22;3623;47.098;15.446;2022-12-05T15:56:57;4.10;99.90
7163;DHT22;3623;47.098;15.446;2022-12-05T15:59:29;4.20;99.90
7163;DHT22;3623;47.098;15.446;2022-12-05T16:01:59;4.00;99.90
7163;DHT22;3623;47.098;15.446;2022-12-05T16:04:32;4.00;99.90
7163;DHT22;3623;47.098;15.446;2022-12-05T16:07:04;4.20;99.90
7163;DHT22;3623;47.098;15.446;2022-12-05T16:09:38;4.10;99.90
7163;DHT22;3623;47.098;15.446;2022-12-05T16:12:19;4.20;99.90
7163;DHT22;3623;47.098;15.446;2022-12-05T16:14:49;4.00;99.90
7163;DHT22;3623;47.098;15.446;2022-12-05T16:17:18;4.00;99.90
7163;DHT22;3623;47.098;15.446;2022-12-05T16:19:46;3.90;99.90
7163;DHT22;3623;47.098;15.446;2022-12-05T16:22:21;4.10;99.90
7163;DHT22;3623;47.098;15.446;2022-12-05T16:25:00;4.00;99.90
7163;DHT22;3623;47.098;15.446;2022-12-05T16:27:32;4.00;99.90
7163;DHT22;3623;47.098;15.446;2022-12-05T16:30:17;4.00;99.90
7163;DHT22;3623;47.098;15.446;2022-12-05T16:32:47;3.90;99.90
7163;DHT22;3623;47.098;15.446;2022-12-05T16:35:29;4.10;99.90
7163;DHT22;3623;47.098;15.446;2022-12-05T16:38:10;4.00;99.90
7163;DHT22;3623;47.098;15.446;2022-12-05T16:40:40;4.00;99.90
7163;DHT22;3623;47.098;15.446;2022-12-05T16:43:18;4.00;99.90